Time;durP1;ratioP1;P1;durP2;ratioP2;P2;SDS_P1;SDS_P2;PMS_P1;PMS_P2;Temp;Humidity;BMP_temperature;BMP_pressure;BME280_temperature;BME280_humidity;BME280_pressure;Samples;Min_cycle;Max_cycle;Signal;HPM_P1;HPM_P2
2022/02/17 00:00:19;;;;;;;0.10;0.10;;;;;;;;;;5052969;28;20519;-79
2022/02/17 00:02:45;;;;;;;0.20;0.10;;;;;;;;;;5052430;28;20024;-80
2022/02/17 00:05:11;;;;;;;0.35;0.10;;;;;;;;;;5052683;28;20339;-77
2022/02/17 00:07:36;;;;;;;0.20;0.10;;;;;;;;;;5052922;28;20487;-80
2022/02/17 00:10:02;;;;;;;0.10;0.10;;;;;;;;;;5051537;28;20036;-80
2022/02/17 00:12:27;;;;;;;0.20;0.10;;;;;;;;;;5052320;28;20464;-81
2022/02/17 00:14:53;;;;;;;0.00;0.00;;;;;;;;;;5052537;28;20025;-80
2022/02/17 00:17:18;;;;;;;0.47;0.03;;;;;;;;;;5053051;28;20009;-79
2022/02/17 00:19:43;;;;;;;0.32;0.10;;;;;;;;;;5051624;28;20017;-77
2022/02/17 00:22:08;;;;;;;0.10;0.10;;;;;;;;;;5052285;28;20025;-81
2022/02/17 00:24:34;;;;;;;0.30;0.10;;;;;;;;;;5052678;28;20388;-79
2022/02/17 00:27:01;;;;;;;0.10;0.10;;;;;;;;;;5052320;28;20472;-81
2022/02/17 00:29:26;;;;;;;0.05;0.00;;;;;;;;;;5052343;28;20021;-79
2022/02/17 00:31:52;;;;;;;0.00;0.00;;;;;;;;;;5051268;28;20021;-79
2022/02/17 00:34:17;;;;;;;0.22;0.10;;;;;;;;;;5052115;28;20104;-79
2022/02/17 00:36:42;;;;;;;0.20;0.10;;;;;;;;;;5052248;28;20701;-79
2022/02/17 00:39:07;;;;;;;0.20;0.10;;;;;;;;;;5052216;28;20021;-81
2022/02/17 00:41:32;;;;;;;0.00;0.00;;;;;;;;;;5052092;28;20052;-80
2022/02/17 00:43:58;;;;;;;0.10;0.10;;;;;;;;;;5051631;28;20039;-81
2022/02/17 00:46:23;;;;;;;0.17;0.10;;;;;;;;;;5052123;28;20024;-81
2022/02/17 00:48:48;;;;;;;4.07;0.20;;;;;;;;;;5052154;28;20048;-82
2022/02/17 00:51:14;;;;;;;0.00;0.00;;;;;;;;;;5052038;28;20485;-80
2022/02/17 00:53:39;;;;;;;0.57;0.10;;;;;;;;;;5051570;28;20074;-79
2022/02/17 00:56:04;;;;;;;0.03;0.00;;;;;;;;;;5050777;28;20067;-80
2022/02/17 00:58:29;;;;;;;0.10;0.00;;;;;;;;;;5051908;28;20066;-80
2022/02/17 01:00:55;;;;;;;0.10;0.10;;;;;;;;;;5052123;28;20046;-78
2022/02/17 01:03:20;;;;;;;0.95;0.10;;;;;;;;;;5051638;28;20258;-79
2022/02/17 01:05:45;;;;;;;0.00;0.00;;;;;;;;;;5051714;28;20500;-78
2022/02/17 01:08:10;;;;;;;0.30;0.10;;;;;;;;;;5051940;28;20254;-78
2022/02/17 01:10:35;;;;;;;0.10;0.00;;;;;;;;;;5051773;28;20013;-80
2022/02/17 01:13:01;;;;;;;0.30;0.20;;;;;;;;;;5050140;28;22364;-80
2022/02/17 01:15:26;;;;;;;0.10;0.03;;;;;;;;;;5051713;28;20473;-83
2022/02/17 01:17:51;;;;;;;0.73;0.10;;;;;;;;;;5051826;28;20107;-82
2022/02/17 01:20:17;;;;;;;0.52;0.10;;;;;;;;;;5051744;28;20273;-80
2022/02/17 01:22:45;;;;;;;0.00;0.00;;;;;;;;;;5051395;28;20100;-79
2022/02/17 01:25:11;;;;;;;1.27;0.25;;;;;;;;;;5051623;28;20094;-79
2022/02/17 01:27:36;;;;;;;0.00;0.00;;;;;;;;;;5050365;28;20035;-80
2022/02/17 01:30:02;;;;;;;0.13;0.10;;;;;;;;;;5051709;28;20104;-79
2022/02/17 01:32:27;;;;;;;0.00;0.00;;;;;;;;;;5051263;28;20468;-77
2022/02/17 01:34:52;;;;;;;0.20;0.10;;;;;;;;;;5051453;28;20017;-77
2022/02/17 01:37:17;;;;;;;1.25;0.20;;;;;;;;;;5051658;28;20020;-81
2022/02/17 01:39:42;;;;;;;1.23;0.10;;;;;;;;;;5051542;28;20384;-79
2022/02/17 01:42:08;;;;;;;0.52;0.13;;;;;;;;;;5052527;28;20021;-79
2022/02/17 01:44:34;;;;;;;0.65;0.17;;;;;;;;;;5055444;28;20021;-80
2022/02/17 01:46:59;;;;;;;0.10;0.10;;;;;;;;;;5055612;28;20033;-80
2022/02/17 01:49:24;;;;;;;0.30;0.10;;;;;;;;;;5055465;28;20021;-81
2022/02/17 01:51:49;;;;;;;0.98;0.20;;;;;;;;;;5054168;28;20029;-79
2022/02/17 01:54:14;;;;;;;0.10;0.10;;;;;;;;;;5054072;28;20075;-83
2022/02/17 01:56:41;;;;;;;0.20;0.10;;;;;;;;;;5055312;28;20490;-81
2022/02/17 01:59:07;;;;;;;2.83;0.10;;;;;;;;;;5053955;28;20029;-82
2022/02/17 02:01:33;;;;;;;0.10;0.10;;;;;;;;;;5055363;28;20013;-76
2022/02/17 02:03:59;;;;;;;0.20;0.10;;;;;;;;;;5053386;28;20383;-79
2022/02/17 02:06:24;;;;;;;0.22;0.15;;;;;;;;;;5055291;28;20029;-77
2022/02/17 02:08:49;;;;;;;0.10;0.10;;;;;;;;;;5054841;28;20025;-77
2022/02/17 02:11:14;;;;;;;0.08;0.00;;;;;;;;;;5054994;28;20476;-79
2022/02/17 02:13:40;;;;;;;0.40;0.20;;;;;;;;;;5056615;28;20021;-83
2022/02/17 02:16:06;;;;;;;2.05;0.10;;;;;;;;;;5056279;28;20032;-79
2022/02/17 02:18:33;;;;;;;0.13;0.10;;;;;;;;;;5053691;28;20009;-79
2022/02/17 02:20:58;;;;;;;0.32;0.20;;;;;;;;;;5053529;28;20017;-80
2022/02/17 02:23:23;;;;;;;0.20;0.13;;;;;;;;;;5054475;28;20158;-79
2022/02/17 02:25:50;;;;;;;0.63;0.20;;;;;;;;;;5054723;28;20036;-80
2022/02/17 02:28:26;;;;;;;1.08;0.22;;;;;;;;;;5054968;28;20021;-81
2022/02/17 02:30:52;;;;;;;0.55;0.20;;;;;;;;;;5053448;28;20059;-80
2022/02/17 02:33:18;;;;;;;0.10;0.10;;;;;;;;;;5054229;28;20021;-79
2022/02/17 02:35:44;;;;;;;0.00;0.00;;;;;;;;;;5054567;28;20017;-79
2022/02/17 02:38:09;;;;;;;1.17;0.10;;;;;;;;;;5053358;28;20503;-80
2022/02/17 02:40:35;;;;;;;0.82;0.30;;;;;;;;;;5056411;28;20079;-82
2022/02/17 02:43:00;;;;;;;3.42;0.28;;;;;;;;;;5064075;28;20372;-79
2022/02/17 02:45:26;;;;;;;0.10;0.10;;;;;;;;;;5053045;28;20021;-81
2022/02/17 02:47:51;;;;;;;0.30;0.20;;;;;;;;;;5054523;28;20013;-79
2022/02/17 02:50:16;;;;;;;3.53;0.30;;;;;;;;;;5054338;28;20021;-80
2022/02/17 02:52:41;;;;;;;0.68;0.20;;;;;;;;;;5053902;28;20020;-80
2022/02/17 02:55:07;;;;;;;0.60;0.13;;;;;;;;;;5051877;28;20472;-80
2022/02/17 02:57:32;;;;;;;0.43;0.20;;;;;;;;;;5054319;28;20021;-81
2022/02/17 02:59:57;;;;;;;3.30;1.05;;;;;;;;;;5054459;28;20017;-79
2022/02/17 03:02:22;;;;;;;2.30;0.40;;;;;;;;;;5055116;28;20024;-81
2022/02/17 03:04:48;;;;;;;2.63;0.50;;;;;;;;;;5056103;28;20032;-79
2022/02/17 03:07:13;;;;;;;2.45;0.60;;;;;;;;;;5052709;28;20056;-77
2022/02/17 03:09:38;;;;;;;3.00;0.40;;;;;;;;;;5053988;28;20021;-80
2022/02/17 03:12:04;;;;;;;1.90;0.40;;;;;;;;;;5053645;28;20029;-78
2022/02/17 03:14:29;;;;;;;1.05;0.20;;;;;;;;;;5053878;28;20029;-80
2022/02/17 03:16:54;;;;;;;2.23;0.70;;;;;;;;;;5052946;28;20017;-79
2022/02/17 03:19:19;;;;;;;0.85;0.38;;;;;;;;;;5054111;28;20821;-79
2022/02/17 03:21:44;;;;;;;2.05;0.55;;;;;;;;;;5052775;28;20017;-80
2022/02/17 03:24:10;;;;;;;1.70;0.45;;;;;;;;;;5053720;28;20510;-80
2022/02/17 03:26:35;;;;;;;2.75;0.60;;;;;;;;;;5053702;28;20021;-79
2022/02/17 03:29:00;;;;;;;1.25;0.47;;;;;;;;;;5053821;28;20036;-81
2022/02/17 03:31:25;;;;;;;1.35;0.40;;;;;;;;;;5053776;28;20021;-78
2022/02/17 03:33:52;;;;;;;1.65;0.43;;;;;;;;;;5051761;28;20021;-79
2022/02/17 03:36:17;;;;;;;1.73;0.45;;;;;;;;;;5056405;28;20013;-80
2022/02/17 03:38:42;;;;;;;3.35;0.65;;;;;;;;;;5056082;28;20085;-82
2022/02/17 03:41:07;;;;;;;1.98;0.70;;;;;;;;;;5055999;28;20024;-80
2022/02/17 03:43:33;;;;;;;1.73;0.50;;;;;;;;;;5055176;28;20017;-80
2022/02/17 03:45:58;;;;;;;4.65;0.40;;;;;;;;;;5060470;28;20024;-80
2022/02/17 03:48:23;;;;;;;1.75;0.50;;;;;;;;;;5065051;28;20062;-82
2022/02/17 03:50:48;;;;;;;0.65;0.52;;;;;;;;;;5070224;28;20020;-80
2022/02/17 03:53:13;;;;;;;2.03;0.45;;;;;;;;;;5066768;28;20029;-78
2022/02/17 03:55:39;;;;;;;5.80;1.42;;;;;;;;;;5053997;28;20021;-77
2022/02/17 03:58:04;;;;;;;2.13;0.82;;;;;;;;;;5053486;28;20062;-77
2022/02/17 04:00:29;;;;;;;6.65;0.88;;;;;;;;;;5053406;28;20021;-76
2022/02/17 04:02:54;;;;;;;3.70;0.70;;;;;;;;;;5052770;28;20023;-76
2022/02/17 04:05:19;;;;;;;12.43;0.63;;;;;;;;;;5052866;28;20111;-78
2022/02/17 04:07:45;;;;;;;1.55;0.50;;;;;;;;;;5053215;28;20033;-78
2022/02/17 04:10:10;;;;;;;2.72;0.55;;;;;;;;;;5053646;28;20044;-79
2022/02/17 04:12:35;;;;;;;4.38;0.55;;;;;;;;;;5053060;28;20362;-78
2022/02/17 04:15:00;;;;;;;1.92;0.40;;;;;;;;;;5052969;28;20498;-76
2022/02/17 04:17:26;;;;;;;1.00;0.50;;;;;;;;;;5053223;28;20013;-77
2022/02/17 04:19:52;;;;;;;2.83;0.38;;;;;;;;;;5052952;28;20010;-77
2022/02/17 04:22:18;;;;;;;2.70;0.50;;;;;;;;;;5052584;28;20091;-79
2022/02/17 04:24:43;;;;;;;4.80;0.38;;;;;;;;;;5052860;28;20110;-78
2022/02/17 04:27:08;;;;;;;2.78;0.60;;;;;;;;;;5052129;28;20032;-78
2022/02/17 04:29:34;;;;;;;1.42;0.50;;;;;;;;;;5053435;28;20017;-78
2022/02/17 04:31:59;;;;;;;3.17;0.50;;;;;;;;;;5051664;28;20021;-77
2022/02/17 04:34:24;;;;;;;3.22;0.35;;;;;;;;;;5052776;28;20040;-78
2022/02/17 04:36:49;;;;;;;3.30;0.70;;;;;;;;;;5053173;28;20096;-78
2022/02/17 04:39:15;;;;;;;1.27;0.50;;;;;;;;;;5053481;28;20048;-76
2022/02/17 04:44:24;;;;;;;4.30;0.70;;;;;;;;;;5054095;28;20545;-78
2022/02/17 04:46:49;;;;;;;2.50;0.30;;;;;;;;;;5053396;28;20024;-76
2022/02/17 04:49:15;;;;;;;2.25;0.68;;;;;;;;;;5052160;28;20028;-76
2022/02/17 04:51:40;;;;;;;2.95;0.70;;;;;;;;;;5053218;28;20025;-77
2022/02/17 04:54:06;;;;;;;5.53;0.88;;;;;;;;;;5052531;28;20487;-77
2022/02/17 04:56:31;;;;;;;0.88;0.50;;;;;;;;;;5053008;28;20024;-76
2022/02/17 04:58:56;;;;;;;2.95;0.52;;;;;;;;;;5053200;28;20460;-76
2022/02/17 05:01:22;;;;;;;3.38;0.73;;;;;;;;;;5053225;28;20098;-77
2022/02/17 05:03:47;;;;;;;3.47;0.73;;;;;;;;;;5051691;28;20029;-75
2022/02/17 05:06:12;;;;;;;2.92;0.52;;;;;;;;;;5057563;22;20041;-79
2022/02/17 05:08:37;;;;;;;5.03;1.00;;;;;;;;;;5033178;28;20500;-78
2022/02/17 05:11:02;;;;;;;3.10;0.60;;;;;;;;;;5034031;28;20021;-77
2022/02/17 05:13:28;;;;;;;1.70;0.80;;;;;;;;;;5065298;28;20469;-77
2022/02/17 05:15:54;;;;;;;5.45;0.98;;;;;;;;;;5033225;28;20101;-78
2022/02/17 05:18:19;;;;;;;3.05;0.82;;;;;;;;;;5032276;28;20461;-78
2022/02/17 05:20:44;;;;;;;4.13;0.70;;;;;;;;;;5031033;28;20026;-78
2022/02/17 05:23:10;;;;;;;5.82;1.10;;;;;;;;;;5031330;28;20536;-76
2022/02/17 05:25:35;;;;;;;5.95;1.08;;;;;;;;;;5032491;28;20013;-78
2022/02/17 05:28:00;;;;;;;10.32;1.42;;;;;;;;;;5031398;28;20022;-78
2022/02/17 05:30:26;;;;;;;5.72;1.00;;;;;;;;;;5032950;28;20017;-79
2022/02/17 05:32:51;;;;;;;7.13;0.95;;;;;;;;;;5031819;28;20021;-79
2022/02/17 05:35:16;;;;;;;8.73;0.93;;;;;;;;;;5040409;28;20033;-77
2022/02/17 05:37:41;;;;;;;6.57;1.00;;;;;;;;;;5033105;28;20033;-77
2022/02/17 05:40:08;;;;;;;7.10;1.70;;;;;;;;;;5031987;28;20457;-76
2022/02/17 05:42:34;;;;;;;11.88;1.10;;;;;;;;;;5031593;28;20044;-75
2022/02/17 05:44:59;;;;;;;6.15;0.90;;;;;;;;;;5031768;28;20049;-77
2022/02/17 05:47:24;;;;;;;5.55;1.10;;;;;;;;;;5031566;28;20033;-75
2022/02/17 05:49:49;;;;;;;6.35;1.40;;;;;;;;;;5031875;28;20040;-74
2022/02/17 05:52:14;;;;;;;7.80;1.40;;;;;;;;;;5032414;28;20026;-76
2022/02/17 05:54:40;;;;;;;4.97;1.10;;;;;;;;;;5032914;28;20025;-74
2022/02/17 05:57:05;;;;;;;10.20;1.92;;;;;;;;;;5031717;28;20021;-75
2022/02/17 05:59:30;;;;;;;14.80;2.50;;;;;;;;;;5033852;28;20079;-75
2022/02/17 06:01:55;;;;;;;11.75;1.60;;;;;;;;;;5032891;28;20485;-75
2022/02/17 06:04:20;;;;;;;7.40;1.38;;;;;;;;;;5032956;28;20115;-76
2022/02/17 06:06:46;;;;;;;7.65;0.90;;;;;;;;;;5032746;28;20037;-76
2022/02/17 06:09:11;;;;;;;6.90;1.20;;;;;;;;;;5032497;28;20018;-77
2022/02/17 06:11:36;;;;;;;12.70;1.25;;;;;;;;;;5032098;28;20021;-76
2022/02/17 06:14:02;;;;;;;7.70;0.85;;;;;;;;;;5031968;28;20014;-76
2022/02/17 06:16:27;;;;;;;8.90;0.98;;;;;;;;;;5031892;28;20087;-76
2022/02/17 06:18:52;;;;;;;6.22;0.70;;;;;;;;;;5032361;28;20025;-76
2022/02/17 06:21:18;;;;;;;7.68;0.90;;;;;;;;;;5030926;28;20014;-76
2022/02/17 06:23:43;;;;;;;5.00;0.80;;;;;;;;;;5031572;28;20018;-76
2022/02/17 06:26:08;;;;;;;9.70;0.93;;;;;;;;;;5031969;28;20022;-76
2022/02/17 06:28:33;;;;;;;7.35;1.05;;;;;;;;;;5032042;28;20025;-76
2022/02/17 06:30:58;;;;;;;4.57;0.93;;;;;;;;;;5035670;28;20021;-76
2022/02/17 06:33:24;;;;;;;5.40;1.45;;;;;;;;;;5034889;28;20024;-76
2022/02/17 06:35:49;;;;;;;4.88;0.60;;;;;;;;;;5035187;28;20010;-76
2022/02/17 06:38:14;;;;;;;6.90;1.08;;;;;;;;;;5035301;28;20025;-75
2022/02/17 06:40:40;;;;;;;11.15;1.73;;;;;;;;;;5035213;28;20022;-77
2022/02/17 06:43:06;;;;;;;6.38;0.88;;;;;;;;;;5035113;28;20020;-76
2022/02/17 06:45:31;;;;;;;5.35;1.00;;;;;;;;;;5035512;28;20488;-75
2022/02/17 06:47:56;;;;;;;2.75;0.75;;;;;;;;;;5035394;28;20029;-75
2022/02/17 06:50:22;;;;;;;6.50;1.20;;;;;;;;;;5035593;28;20014;-75
2022/02/17 06:52:47;;;;;;;5.05;0.88;;;;;;;;;;5035147;28;20045;-76
2022/02/17 06:55:15;;;;;;;3.55;0.70;;;;;;;;;;5035951;28;20101;-76
2022/02/17 06:57:41;;;;;;;5.32;1.08;;;;;;;;;;5036244;28;20095;-76
2022/02/17 07:00:06;;;;;;;2.33;0.73;;;;;;;;;;5035535;28;20021;-76
2022/02/17 07:02:33;;;;;;;6.57;0.77;;;;;;;;;;5034015;28;20433;-76
2022/02/17 07:04:58;;;;;;;6.03;0.73;;;;;;;;;;5034707;28;20017;-76
2022/02/17 07:07:24;;;;;;;7.65;1.23;;;;;;;;;;5035385;28;20052;-75
2022/02/17 07:09:49;;;;;;;2.05;0.80;;;;;;;;;;5034140;28;20071;-75
2022/02/17 07:12:14;;;;;;;4.70;0.82;;;;;;;;;;5034732;28;20022;-76
2022/02/17 07:14:40;;;;;;;4.53;1.02;;;;;;;;;;5033885;28;20036;-76
2022/02/17 07:17:05;;;;;;;10.13;2.58;;;;;;;;;;5035380;28;20020;-76
2022/02/17 07:19:31;;;;;;;4.63;1.00;;;;;;;;;;5033589;28;20461;-75
2022/02/17 07:21:56;;;;;;;5.38;1.17;;;;;;;;;;5033510;28;20014;-75
2022/02/17 07:24:21;;;;;;;3.97;0.98;;;;;;;;;;5033776;28;20028;-75
2022/02/17 07:26:47;;;;;;;4.78;1.00;;;;;;;;;;5034769;28;20021;-76
2022/02/17 07:29:13;;;;;;;4.00;0.82;;;;;;;;;;5034569;28;20468;-76
2022/02/17 07:31:38;;;;;;;3.72;0.70;;;;;;;;;;5034977;28;20017;-75
2022/02/17 07:34:04;;;;;;;7.30;0.93;;;;;;;;;;5034684;28;20051;-76
2022/02/17 07:36:29;;;;;;;2.30;0.80;;;;;;;;;;5034383;28;20013;-75
2022/02/17 07:38:54;;;;;;;2.70;0.60;;;;;;;;;;5032714;28;20013;-75
2022/02/17 07:41:20;;;;;;;7.03;0.50;;;;;;;;;;5032355;28;20022;-75
2022/02/17 07:43:45;;;;;;;3.33;0.75;;;;;;;;;;5033832;28;20025;-75
2022/02/17 07:46:10;;;;;;;2.38;0.60;;;;;;;;;;5033753;28;20071;-75
2022/02/17 07:48:36;;;;;;;4.20;0.50;;;;;;;;;;5034820;28;20096;-76
2022/02/17 07:51:02;;;;;;;4.57;0.60;;;;;;;;;;5034203;28;20105;-76
2022/02/17 07:53:27;;;;;;;6.28;0.93;;;;;;;;;;5034378;28;20018;-76
2022/02/17 07:55:53;;;;;;;6.05;1.05;;;;;;;;;;5034758;28;20070;-75
2022/02/17 07:58:18;;;;;;;3.65;0.70;;;;;;;;;;5035151;28;20473;-75
2022/02/17 08:00:44;;;;;;;3.83;0.57;;;;;;;;;;5034121;28;20013;-76
2022/02/17 08:03:10;;;;;;;2.65;1.15;;;;;;;;;;5034958;28;20022;-75
2022/02/17 08:05:38;;;;;;;6.15;1.10;;;;;;;;;;5034959;28;20029;-75
2022/02/17 08:08:04;;;;;;;6.22;1.15;;;;;;;;;;5034991;28;20496;-75
2022/02/17 08:10:29;;;;;;;4.32;0.73;;;;;;;;;;5034484;28;20018;-75
2022/02/17 08:12:54;;;;;;;7.43;1.15;;;;;;;;;;5033837;28;20041;-75
2022/02/17 08:15:20;;;;;;;9.52;1.40;;;;;;;;;;5033769;28;20057;-75
2022/02/17 08:17:45;;;;;;;8.05;1.45;;;;;;;;;;5034211;28;20023;-75
2022/02/17 08:20:11;;;;;;;10.90;1.50;;;;;;;;;;5034133;28;20476;-75
2022/02/17 08:22:36;;;;;;;7.13;1.27;;;;;;;;;;5033016;28;20017;-75
2022/02/17 08:25:02;;;;;;;3.85;1.35;;;;;;;;;;5032753;28;20025;-75
2022/02/17 08:27:27;;;;;;;5.20;1.40;;;;;;;;;;5034008;28;20024;-76
2022/02/17 08:29:52;;;;;;;9.85;1.60;;;;;;;;;;5033647;28;20037;-75
2022/02/17 08:32:18;;;;;;;7.57;1.38;;;;;;;;;;5033105;28;20105;-75
2022/02/17 08:34:43;;;;;;;5.88;1.48;;;;;;;;;;5033096;28;20123;-75
2022/02/17 08:37:10;;;;;;;10.55;1.73;;;;;;;;;;5033744;28;20022;-75
2022/02/17 08:39:35;;;;;;;6.22;1.17;;;;;;;;;;5033341;28;20027;-75
2022/02/17 08:42:00;;;;;;;9.40;1.67;;;;;;;;;;5032756;28;20025;-75
2022/02/17 08:44:26;;;;;;;12.15;1.63;;;;;;;;;;5033289;28;20025;-76
2022/02/17 08:46:51;;;;;;;6.50;1.30;;;;;;;;;;5033611;28;20079;-76
2022/02/17 08:49:16;;;;;;;9.40;1.27;;;;;;;;;;5032432;28;20026;-76
2022/02/17 08:51:42;;;;;;;10.60;1.60;;;;;;;;;;5032587;28;20029;-76
2022/02/17 08:54:07;;;;;;;10.52;1.38;;;;;;;;;;5031446;28;20443;-75
2022/02/17 08:56:33;;;;;;;6.82;0.90;;;;;;;;;;5034011;28;20045;-75
2022/02/17 08:58:58;;;;;;;2.90;0.80;;;;;;;;;;5032507;28;20420;-75
2022/02/17 09:01:23;;;;;;;3.63;0.73;;;;;;;;;;5032795;28;20112;-75
2022/02/17 09:03:48;;;;;;;3.10;0.82;;;;;;;;;;5032859;28;20021;-75
2022/02/17 09:06:14;;;;;;;5.43;1.17;;;;;;;;;;5031428;28;20447;-75
2022/02/17 09:08:40;;;;;;;2.35;0.68;;;;;;;;;;5033426;28;20025;-75
2022/02/17 09:11:05;;;;;;;4.15;0.85;;;;;;;;;;5033508;28;20503;-76
2022/02/17 09:13:30;;;;;;;6.63;1.23;;;;;;;;;;5031575;28;20026;-76
2022/02/17 09:15:56;;;;;;;3.85;0.50;;;;;;;;;;5033644;28;20026;-75
2022/02/17 09:18:21;;;;;;;3.40;0.55;;;;;;;;;;5032514;28;20024;-76
2022/02/17 09:20:47;;;;;;;5.72;0.70;;;;;;;;;;5033170;28;20489;-76
2022/02/17 09:23:12;;;;;;;2.03;0.65;;;;;;;;;;5033046;28;20045;-76
2022/02/17 09:25:37;;;;;;;4.47;0.63;;;;;;;;;;5031594;28;20452;-75
2022/02/17 09:28:03;;;;;;;4.43;0.60;;;;;;;;;;5032906;28;20373;-75
2022/02/17 09:30:28;;;;;;;4.05;0.55;;;;;;;;;;5032793;28;20052;-75
2022/02/17 09:32:53;;;;;;;1.83;0.45;;;;;;;;;;5031478;28;20013;-75
2022/02/17 09:35:18;;;;;;;3.40;0.52;;;;;;;;;;5032260;28;20500;-76
2022/02/17 09:37:44;;;;;;;3.55;0.50;;;;;;;;;;5031782;28;20066;-75
2022/02/17 09:40:10;;;;;;;6.07;0.70;;;;;;;;;;5031958;28;20018;-76
2022/02/17 09:42:39;;;;;;;1.48;0.32;;;;;;;;;;5031158;28;20021;-76
2022/02/17 09:45:08;;;;;;;2.63;0.60;;;;;;;;;;5032650;28;20017;-76
2022/02/17 09:47:34;;;;;;;3.33;0.60;;;;;;;;;;5032303;28;20108;-75
2022/02/17 09:49:59;;;;;;;1.58;0.38;;;;;;;;;;5033099;28;20071;-75
2022/02/17 09:52:24;;;;;;;1.15;0.50;;;;;;;;;;5032079;28;20017;-75
2022/02/17 09:54:51;;;;;;;3.40;0.50;;;;;;;;;;5033763;28;20083;-76
2022/02/17 09:57:22;;;;;;;2.58;0.40;;;;;;;;;;5033661;28;20026;-75
2022/02/17 09:59:47;;;;;;;3.80;0.47;;;;;;;;;;5033852;28;20018;-75
2022/02/17 10:02:20;;;;;;;1.75;0.50;;;;;;;;;;5033312;28;20384;-75
2022/02/17 10:04:51;;;;;;;6.82;0.73;;;;;;;;;;5037684;28;20033;-75
2022/02/17 10:07:27;;;;;;;2.75;1.05;;;;;;;;;;5038777;28;20055;-76
2022/02/17 10:09:58;;;;;;;4.60;1.00;;;;;;;;;;5038683;28;20024;-75
2022/02/17 10:12:23;;;;;;;3.38;0.80;;;;;;;;;;5040526;28;20380;-75
2022/02/17 10:14:56;;;;;;;3.92;1.20;;;;;;;;;;5038345;28;20022;-76
2022/02/17 10:17:22;;;;;;;3.45;0.98;;;;;;;;;;5037239;28;20403;-76
2022/02/17 10:19:49;;;;;;;4.65;0.80;;;;;;;;;;5037743;28;20089;-76
2022/02/17 10:22:19;;;;;;;6.22;1.20;;;;;;;;;;5035703;28;20104;-75
2022/02/17 10:24:48;;;;;;;8.48;1.17;;;;;;;;;;5035722;28;20018;-76
2022/02/17 10:27:14;;;;;;;7.40;1.05;;;;;;;;;;5035938;28;20041;-76
2022/02/17 10:29:40;;;;;;;8.20;1.30;;;;;;;;;;5034564;28;20508;-75
2022/02/17 10:32:09;;;;;;;7.40;1.17;;;;;;;;;;5034112;28;20539;-76
2022/02/17 10:34:34;;;;;;;5.22;0.88;;;;;;;;;;5036098;28;20109;-75
2022/02/17 10:37:00;;;;;;;6.28;1.20;;;;;;;;;;5036084;28;20049;-76
2022/02/17 10:39:28;;;;;;;4.80;0.80;;;;;;;;;;5036124;28;20021;-76
2022/02/17 10:42:13;;;;;;;4.40;0.68;;;;;;;;;;5035349;28;20018;-76
2022/02/17 10:44:42;;;;;;;5.78;0.80;;;;;;;;;;5035330;28;20026;-75
2022/02/17 10:47:16;;;;;;;4.50;0.95;;;;;;;;;;5036564;28;20025;-76
2022/02/17 10:49:50;;;;;;;4.55;0.88;;;;;;;;;;5035376;28;20029;-76
2022/02/17 10:52:45;;;;;;;3.22;0.80;;;;;;;;;;5035274;28;20052;-76
2022/02/17 10:55:11;;;;;;;7.72;1.40;;;;;;;;;;5027567;28;20037;-76
2022/02/17 10:57:36;;;;;;;5.68;0.88;;;;;;;;;;5035371;28;20103;-76
2022/02/17 11:00:12;;;;;;;4.35;1.52;;;;;;;;;;5034172;28;20484;-76
2022/02/17 11:02:38;;;;;;;7.20;0.80;;;;;;;;;;5036675;28;20025;-76
2022/02/17 11:05:07;;;;;;;9.15;2.22;;;;;;;;;;5037518;28;20073;-77
2022/02/17 11:07:32;;;;;;;5.95;1.40;;;;;;;;;;5050269;22;20061;-89
2022/02/17 11:09:58;;;;;;;2.20;0.73;;;;;;;;;;5068575;28;20091;-88
2022/02/17 11:12:25;;;;;;;4.07;0.88;;;;;;;;;;5066794;28;20022;-89
2022/02/17 11:14:57;;;;;;;5.03;1.20;;;;;;;;;;5065786;28;20029;-89
2022/02/17 11:17:23;;;;;;;3.92;1.08;;;;;;;;;;5034597;28;20507;-88
2022/02/17 11:19:49;;;;;;;6.90;1.25;;;;;;;;;;5032964;28;20028;-86
2022/02/17 11:22:14;;;;;;;8.20;1.55;;;;;;;;;;5033961;28;20017;-88
2022/02/17 11:24:52;;;;;;;5.00;1.20;;;;;;;;;;5032626;28;20087;-88
2022/02/17 11:27:18;;;;;;;6.35;0.95;;;;;;;;;;5035275;28;20025;-88
2022/02/17 11:29:43;;;;;;;7.63;1.23;;;;;;;;;;5036924;28;20101;-89
2022/02/17 11:32:14;;;;;;;10.07;1.33;;;;;;;;;;5034998;28;20064;-90
2022/02/17 11:34:46;;;;;;;3.70;1.10;;;;;;;;;;5034442;28;20021;-90
2022/02/17 11:37:20;;;;;;;5.53;0.98;;;;;;;;;;5032822;28;20018;-88
2022/02/17 11:40:04;;;;;;;2.08;0.63;;;;;;;;;;5032987;28;20035;-89
2022/02/17 11:42:33;;;;;;;5.00;0.90;;;;;;;;;;5032407;28;20021;-89
2022/02/17 11:45:09;;;;;;;2.97;0.80;;;;;;;;;;5032815;28;20021;-88
2022/02/17 11:47:49;;;;;;;2.70;0.75;;;;;;;;;;5033818;28;20018;-86
2022/02/17 11:50:33;;;;;;;3.10;0.98;;;;;;;;;;5032341;28;20051;-88
2022/02/17 11:53:28;;;;;;;3.58;0.65;;;;;;;;;;5033814;28;20112;-87
2022/02/17 11:56:20;;;;;;;4.15;1.02;;;;;;;;;;5017511;28;20029;-85
2022/02/17 11:58:51;;;;;;;6.28;1.35;;;;;;;;;;5035162;28;20435;-88
2022/02/17 12:01:27;;;;;;;4.20;1.30;;;;;;;;;;5033173;28;20025;-85
2022/02/17 12:04:01;;;;;;;7.03;1.20;;;;;;;;;;5032004;28;20108;-86
2022/02/17 12:06:33;;;;;;;4.35;0.90;;;;;;;;;;5032836;28;20033;-85
2022/02/17 12:08:58;;;;;;;5.40;1.90;;;;;;;;;;5032155;28;20285;-85
2022/02/17 12:11:28;;;;;;;4.70;1.02;;;;;;;;;;5032794;28;20373;-83
2022/02/17 12:13:54;;;;;;;3.90;1.27;;;;;;;;;;5031911;28;20048;-87
2022/02/17 12:16:32;;;;;;;3.80;1.40;;;;;;;;;;5032021;28;20040;-87
2022/02/17 12:19:09;;;;;;;4.72;1.33;;;;;;;;;;5031869;28;20049;-87
2022/02/17 12:21:37;;;;;;;6.80;1.20;;;;;;;;;;5031624;28;20021;-83
2022/02/17 12:24:03;;;;;;;6.18;1.13;;;;;;;;;;5031207;28;20018;-82
2022/02/17 12:26:50;;;;;;;5.18;1.35;;;;;;;;;;5031189;28;20481;-84
2022/02/17 12:29:29;;;;;;;3.88;1.00;;;;;;;;;;5032112;28;20159;-83
2022/02/17 12:31:58;;;;;;;3.47;1.00;;;;;;;;;;5031095;28;20082;-83
2022/02/17 12:34:24;;;;;;;4.70;1.17;;;;;;;;;;5032600;28;20025;-84
2022/02/17 12:36:50;;;;;;;2.53;0.90;;;;;;;;;;5031136;28;20384;-82
2022/02/17 12:39:15;;;;;;;3.88;0.95;;;;;;;;;;5031138;28;20058;-80
2022/02/17 12:41:59;;;;;;;5.40;1.10;;;;;;;;;;5031066;28;20071;-81
2022/02/17 12:44:30;;;;;;;6.03;1.10;;;;;;;;;;5031122;28;20021;-84
2022/02/17 12:46:56;;;;;;;6.22;0.98;;;;;;;;;;5032345;28;20017;-83
2022/02/17 12:49:21;;;;;;;4.10;0.70;;;;;;;;;;5031198;28;20389;-86
2022/02/17 12:51:46;;;;;;;2.42;0.50;;;;;;;;;;5031602;28;20028;-83
2022/02/17 12:54:13;;;;;;;5.25;0.85;;;;;;;;;;5033202;28;20053;-86
2022/02/17 12:56:41;;;;;;;5.03;0.77;;;;;;;;;;5033901;28;20024;-87
2022/02/17 12:59:14;;;;;;;3.72;0.70;;;;;;;;;;5032794;28;20112;-87
2022/02/17 13:01:41;;;;;;;2.95;0.60;;;;;;;;;;5033846;28;20028;-87
2022/02/17 13:04:07;;;;;;;4.05;0.70;;;;;;;;;;5033664;28;20013;-87
2022/02/17 13:06:32;;;;;;;1.60;0.52;;;;;;;;;;5034014;28;20373;-86
2022/02/17 13:09:11;;;;;;;2.60;0.77;;;;;;;;;;5033896;28;20025;-86
2022/02/17 13:11:37;;;;;;;3.50;0.73;;;;;;;;;;5032397;28;20021;-87
2022/02/17 13:14:07;;;;;;;4.30;1.10;;;;;;;;;;5034079;28;20021;-85
2022/02/17 13:16:33;;;;;;;3.40;0.80;;;;;;;;;;5031103;28;20472;-85
2022/02/17 13:18:58;;;;;;;2.78;0.70;;;;;;;;;;5031535;28;20017;-83
2022/02/17 13:21:23;;;;;;;4.20;0.93;;;;;;;;;;5031544;28;20081;-85
2022/02/17 13:23:49;;;;;;;3.58;0.80;;;;;;;;;;5032110;28;20025;-86
2022/02/17 13:26:28;;;;;;;3.80;1.05;;;;;;;;;;5032120;28;20044;-85
2022/02/17 13:28:55;;;;;;;6.00;1.00;;;;;;;;;;5032898;28;20465;-86
2022/02/17 13:31:21;;;;;;;6.18;1.00;;;;;;;;;;5031391;28;20025;-85
2022/02/17 13:33:46;;;;;;;3.80;0.95;;;;;;;;;;5031002;28;20045;-86
2022/02/17 13:36:25;;;;;;;5.15;0.80;;;;;;;;;;5032225;28;20045;-88
2022/02/17 13:39:06;;;;;;;10.82;1.73;;;;;;;;;;5035799;28;20041;-88
2022/02/17 13:41:32;;;;;;;5.57;0.95;;;;;;;;;;5035893;28;20056;-88
2022/02/17 13:43:58;;;;;;;4.65;1.00;;;;;;;;;;5038144;28;20017;-89
2022/02/17 13:46:23;;;;;;;4.13;0.93;;;;;;;;;;5037040;28;20096;-90
2022/02/17 13:48:49;;;;;;;4.10;0.85;;;;;;;;;;5038722;28;20049;-88
2022/02/17 13:51:15;;;;;;;5.38;1.40;;;;;;;;;;5037605;28;20098;-87
2022/02/17 13:53:42;;;;;;;2.33;0.70;;;;;;;;;;5040838;28;20021;-89
2022/02/17 13:56:16;;;;;;;10.18;1.25;;;;;;;;;;5040373;28;20017;-87
2022/02/17 13:58:42;;;;;;;3.55;0.98;;;;;;;;;;5039890;28;20105;-89
2022/02/17 14:01:08;;;;;;;4.45;0.80;;;;;;;;;;5043376;28;20076;-89
2022/02/17 14:03:34;;;;;;;5.18;1.20;;;;;;;;;;5042374;28;20029;-89
2022/02/17 14:06:18;;;;;;;5.13;0.65;;;;;;;;;;5036132;28;20025;-91
2022/02/17 14:08:44;;;;;;;1.95;0.60;;;;;;;;;;5035106;28;20035;-89
2022/02/17 14:11:10;;;;;;;0.85;0.30;;;;;;;;;;5035476;28;20104;-88
2022/02/17 14:13:36;;;;;;;4.30;0.70;;;;;;;;;;5035656;28;20021;-88
2022/02/17 14:16:01;;;;;;;3.45;0.63;;;;;;;;;;5035755;28;20029;-87
2022/02/17 14:18:26;;;;;;;6.63;1.55;;;;;;;;;;5035951;28;20013;-86
2022/02/17 14:20:52;;;;;;;3.90;0.82;;;;;;;;;;5034105;28;20025;-85
2022/02/17 14:23:18;;;;;;;6.75;0.80;;;;;;;;;;5035717;28;20384;-85
2022/02/17 14:25:43;;;;;;;4.82;1.10;;;;;;;;;;5034379;28;20017;-86
2022/02/17 14:28:08;;;;;;;4.88;1.20;;;;;;;;;;5036013;28;20021;-86
2022/02/17 14:30:34;;;;;;;3.70;1.00;;;;;;;;;;5034178;28;20021;-87
2022/02/17 14:33:01;;;;;;;4.85;1.33;;;;;;;;;;5034280;28;20384;-87
2022/02/17 14:35:26;;;;;;;6.43;1.10;;;;;;;;;;5035423;28;20064;-87
2022/02/17 14:37:52;;;;;;;6.25;1.10;;;;;;;;;;5035736;28;20013;-88
2022/02/17 14:40:19;;;;;;;6.53;1.30;;;;;;;;;;5034400;28;20018;-87
2022/02/17 14:42:48;;;;;;;5.40;1.60;;;;;;;;;;5035065;28;20024;-87